»·PEaware :: N128PC KLAX-KSAN

N128PC :: KLAX-KSAN

FLIGHT INFORMATION

Flight Status: Arrived
Operator: Privately registered:
United States
More flights under this callsign
Pilot: Yushen L. (19663)
Aircraft: PIPER PA-28 CHEROKEE ARCHER
(PA28)
More flights by this aircraft type
Origin: KLAX Los Angeles Intl
United States
Destination: KSAN San Diego Intl-Lindbergh
United States
More flights between these airports :: More routes between these airports
Route: SLI V363 MZB
File this flight plan on PilotEdge
Remarks: Cat 11 rating
Altitude:
(Current/Filed)
7,500ft
Speed:
(Current/Filed)
115kts
Departed: 02-Aug-18 05:11 PM
Arrived: 02-Aug-18 06:19 PM
Distance/Time
Traveled:
95nm/1:08
Distance/Time
To Go:
Arrived

Flight Plot

Page will automatically refresh every two minutes.

Flight plan parsing failed; only flown route is shown


Map Options




Map Legend


Flown Route
Filed Route
Departure Airport
Arrival Airport
Navaid (VOR, NDB)
Fix

Horizontal Profiles

Position Reports

Time Latitude Longitude Heading Altitude Ground
Speed
02-Aug-18 16:47 33.941532 -118.394101 269 129ft 0kts
02-Aug-18 16:48 33.941532 -118.394103 269 129ft 0kts
02-Aug-18 16:49 33.941532 -118.394104 269 129ft 0kts
02-Aug-18 16:50 33.941532 -118.394105 269 129ft 0kts
02-Aug-18 16:51 33.941533 -118.394126 272 129ft 0kts
02-Aug-18 16:52 33.941533 -118.394127 272 129ft 0kts
02-Aug-18 16:53 33.941533 -118.394128 272 129ft 0kts
02-Aug-18 16:54 33.941533 -118.394129 272 129ft 0kts
02-Aug-18 16:55 33.941533 -118.394130 272 129ft 0kts
02-Aug-18 16:56 33.941533 -118.394131 272 129ft 0kts
02-Aug-18 16:57 33.941533 -118.394132 272 129ft 0kts
02-Aug-18 16:58 33.941533 -118.394133 272 129ft 0kts
02-Aug-18 16:59 33.941533 -118.394136 272 129ft 0kts
02-Aug-18 17:00 33.941533 -118.394139 272 129ft 0kts
02-Aug-18 17:01 33.941533 -118.394142 272 129ft 0kts
02-Aug-18 17:02 33.941533 -118.394145 272 129ft 0kts
02-Aug-18 17:03 33.941533 -118.394148 272 129ft 0kts
02-Aug-18 17:04 33.941533 -118.394151 272 129ft 0kts
02-Aug-18 17:05 33.940721 -118.392892 140 129ft 13kts
02-Aug-18 17:06 33.939941 -118.388874 81 129ft 20kts
02-Aug-18 17:07 33.940721 -118.381298 81 129ft 12kts
02-Aug-18 17:08 33.940619 -118.380495 128 129ft 0kts
02-Aug-18 17:09 33.940614 -118.380488 128 129ft 0kts
02-Aug-18 17:10 33.940611 -118.380484 128 129ft 0kts
02-Aug-18 17:11 33.940582 -118.380440 130 129ft 4kts
02-Aug-18 17:12 33.939270 -118.391312 270 563ft 65kts
02-Aug-18 17:13 33.939636 -118.410491 265 1775ft 59kts
02-Aug-18 17:14 33.935874 -118.430864 256 2867ft 61kts
02-Aug-18 17:15 33.930556 -118.461328 262 3054ft 114kts
02-Aug-18 17:16 33.928461 -118.497136 252 2997ft 98kts
02-Aug-18 17:17 33.905894 -118.498722 172 2886ft 96kts
02-Aug-18 17:18 33.879531 -118.489749 162 2957ft 101kts
02-Aug-18 17:19 33.850709 -118.479877 166 2983ft 110kts
02-Aug-18 17:20 33.820206 -118.471533 171 2975ft 111kts
02-Aug-18 17:21 33.789556 -118.463515 169 2923ft 114kts
02-Aug-18 17:22 33.765086 -118.456384 154 3043ft 110kts
02-Aug-18 17:23 33.749511 -118.426824 91 3106ft 118kts
02-Aug-18 17:24 33.751083 -118.406741 84 3346ft 113kts
02-Aug-18 17:25 33.752056 -118.377831 93 4080ft 109kts
02-Aug-18 17:26 33.751060 -118.341421 92 4958ft 108kts
02-Aug-18 17:27 33.749281 -118.305324 94 5543ft 109kts
02-Aug-18 17:28 33.748219 -118.267430 95 5553ft 115kts
02-Aug-18 17:29 33.747123 -118.229492 93 5499ft 112kts
02-Aug-18 17:30 33.743031 -118.192222 101 5590ft 121kts
02-Aug-18 17:31 33.735012 -118.154930 112 5578ft 113kts
02-Aug-18 17:32 33.726092 -118.127122 115 5657ft 113kts
02-Aug-18 17:33 33.724226 -118.122615 118 5647ft 116kts
02-Aug-18 17:34 33.707960 -118.088124 118 5558ft 118kts
02-Aug-18 17:35 33.691722 -118.053984 122 5534ft 120kts
02-Aug-18 17:36 33.676228 -118.018526 117 5625ft 124kts
02-Aug-18 17:37 33.659673 -117.982422 120 5543ft 118kts
02-Aug-18 17:38 33.641420 -117.947712 126 5639ft 128kts
02-Aug-18 17:39 33.621151 -117.911553 123 5564ft 131kts
02-Aug-18 17:40 33.602644 -117.875499 122 5540ft 125kts
02-Aug-18 17:41 33.586720 -117.841419 120 6336ft 101kts
02-Aug-18 17:42 33.571491 -117.811958 125 7352ft 108kts
02-Aug-18 17:43 33.551994 -117.778923 129 7603ft 130kts
02-Aug-18 17:44 33.528787 -117.743719 127 7572ft 136kts
02-Aug-18 17:45 33.502508 -117.713385 139 7492ft 133kts
02-Aug-18 17:46 33.469628 -117.697609 169 7594ft 131kts
02-Aug-18 17:47 33.454142 -117.693028 170 7511ft 127kts
02-Aug-18 17:48 33.427443 -117.685854 170 7577ft 120kts
02-Aug-18 17:49 33.394340 -117.677865 168 7509ft 120kts
02-Aug-18 17:50 33.361609 -117.668291 174 7431ft 121kts
02-Aug-18 17:51 33.332706 -117.651387 139 7444ft 120kts
02-Aug-18 17:52 33.306337 -117.628162 153 7532ft 117kts
02-Aug-18 17:53 33.278918 -117.610484 155 7620ft 115kts
02-Aug-18 17:54 33.249517 -117.591384 156 7549ft 120kts
02-Aug-18 17:55 33.221382 -117.569650 144 7493ft 123kts
02-Aug-18 17:56 33.200859 -117.540161 96 7475ft 126kts
02-Aug-18 17:57 33.194945 -117.499803 99 7487ft 121kts
02-Aug-18 17:58 33.189055 -117.464223 96 7406ft 121kts
02-Aug-18 17:59 33.186100 -117.422447 92 6887ft 130kts
02-Aug-18 18:00 33.177096 -117.381783 129 6387ft 126kts
02-Aug-18 18:01 33.147831 -117.362341 162 5982ft 119kts
02-Aug-18 18:02 33.122373 -117.353754 167 5640ft 122kts
02-Aug-18 18:03 33.091003 -117.337958 156 5206ft 122kts
02-Aug-18 18:04 33.059603 -117.325300 175 4517ft 113kts
02-Aug-18 18:05 33.029493 -117.317560 161 3913ft 111kts
02-Aug-18 18:06 33.000586 -117.302809 160 3236ft 112kts
02-Aug-18 18:07 32.972741 -117.290006 169 2735ft 108kts
02-Aug-18 18:08 32.943730 -117.289127 170 2302ft 108kts
02-Aug-18 18:09 32.915106 -117.279651 151 1758ft 119kts
02-Aug-18 18:10 32.890733 -117.261059 151 1686ft 96kts
02-Aug-18 18:11 32.873475 -117.251222 167 1613ft 98kts
02-Aug-18 18:12 32.864818 -117.248620 179 1625ft 94kts
02-Aug-18 18:13 32.838526 -117.240928 162 1708ft 106kts
02-Aug-18 18:14 32.812035 -117.233038 176 1892ft 99kts
02-Aug-18 18:15 32.785574 -117.217409 154 1594ft 110kts
02-Aug-18 18:16 32.757860 -117.201365 141 1154ft 107kts
02-Aug-18 18:17 32.747004 -117.178041 109 960ft 95kts
02-Aug-18 18:18 32.736563 -117.159555 191 533ft 70kts
02-Aug-18 18:19 32.730302 -117.176463 287 127ft 65kts
02-Aug-18 18:20 32.734094 -117.187997 16 18ft 13kts
02-Aug-18 18:21 32.734194 -117.187961 18 18ft 1kts
02-Aug-18 18:22 32.735140 -117.188771 29 18ft 0kts
02-Aug-18 18:23 32.735143 -117.188769 29 18ft 0kts

Navigation Log

Ident Type
Flight plan parsing failed, navigation log unavailable